sensor_id;sensor_type;location;lat;lon;timestamp;P1;durP1;ratioP1;P2;durP2;ratioP2
7027;SDS011;3555;53.248;10.336;2024-03-08T00:00:15;16.90;;;10.90;;
7027;SDS011;3555;53.248;10.336;2024-03-08T00:02:44;17.93;;;10.70;;
7027;SDS011;3555;53.248;10.336;2024-03-08T00:05:12;18.33;;;10.47;;
7027;SDS011;3555;53.248;10.336;2024-03-08T00:07:40;16.57;;;10.10;;
7027;SDS011;3555;53.248;10.336;2024-03-08T00:10:08;16.13;;;10.10;;
7027;SDS011;3555;53.248;10.336;2024-03-08T00:12:38;18.67;;;11.00;;
7027;SDS011;3555;53.248;10.336;2024-03-08T00:15:07;17.90;;;10.60;;
7027;SDS011;3555;53.248;10.336;2024-03-08T00:17:34;16.07;;;10.50;;
7027;SDS011;3555;53.248;10.336;2024-03-08T00:20:01;17.13;;;10.07;;
7027;SDS011;3555;53.248;10.336;2024-03-08T00:22:33;18.50;;;11.27;;
7027;SDS011;3555;53.248;10.336;2024-03-08T00:25:00;18.37;;;10.60;;
7027;SDS011;3555;53.248;10.336;2024-03-08T00:27:28;16.87;;;9.90;;
7027;SDS011;3555;53.248;10.336;2024-03-08T00:29:57;16.80;;;10.20;;
7027;SDS011;3555;53.248;10.336;2024-03-08T00:32:24;16.60;;;10.30;;
7027;SDS011;3555;53.248;10.336;2024-03-08T00:34:51;19.53;;;11.23;;
7027;SDS011;3555;53.248;10.336;2024-03-08T00:37:18;16.13;;;10.10;;
7027;SDS011;3555;53.248;10.336;2024-03-08T00:39:44;18.60;;;11.73;;
7027;SDS011;3555;53.248;10.336;2024-03-08T00:42:11;17.87;;;10.37;;
7027;SDS011;3555;53.248;10.336;2024-03-08T00:44:38;16.03;;;9.83;;
7027;SDS011;3555;53.248;10.336;2024-03-08T00:47:07;15.77;;;10.50;;
7027;SDS011;3555;53.248;10.336;2024-03-08T00:49:34;17.40;;;10.87;;
7027;SDS011;3555;53.248;10.336;2024-03-08T00:52:01;17.97;;;10.30;;
7027;SDS011;3555;53.248;10.336;2024-03-08T00:54:28;17.60;;;10.87;;
7027;SDS011;3555;53.248;10.336;2024-03-08T00:56:55;14.77;;;9.30;;
7027;SDS011;3555;53.248;10.336;2024-03-08T00:59:22;20.97;;;10.53;;
7027;SDS011;3555;53.248;10.336;2024-03-08T01:01:49;17.13;;;10.33;;
7027;SDS011;3555;53.248;10.336;2024-03-08T01:04:17;16.80;;;9.67;;
7027;SDS011;3555;53.248;10.336;2024-03-08T01:06:45;20.10;;;9.90;;
7027;SDS011;3555;53.248;10.336;2024-03-08T01:09:12;16.70;;;10.40;;
7027;SDS011;3555;53.248;10.336;2024-03-08T01:11:39;16.97;;;11.03;;
7027;SDS011;3555;53.248;10.336;2024-03-08T01:14:07;16.50;;;10.60;;
7027;SDS011;3555;53.248;10.336;2024-03-08T01:16:34;16.73;;;10.57;;
7027;SDS011;3555;53.248;10.336;2024-03-08T01:19:01;22.17;;;12.13;;
7027;SDS011;3555;53.248;10.336;2024-03-08T01:21:29;15.93;;;10.27;;
7027;SDS011;3555;53.248;10.336;2024-03-08T01:23:56;18.40;;;10.27;;
7027;SDS011;3555;53.248;10.336;2024-03-08T01:26:23;19.70;;;11.10;;
7027;SDS011;3555;53.248;10.336;2024-03-08T01:28:50;19.17;;;11.23;;
7027;SDS011;3555;53.248;10.336;2024-03-08T01:31:17;17.60;;;10.03;;
7027;SDS011;3555;53.248;10.336;2024-03-08T01:33:43;18.43;;;11.13;;
7027;SDS011;3555;53.248;10.336;2024-03-08T01:36:10;19.27;;;10.93;;
7027;SDS011;3555;53.248;10.336;2024-03-08T01:38:41;17.53;;;10.53;;
7027;SDS011;3555;53.248;10.336;2024-03-08T01:41:08;18.93;;;11.00;;
7027;SDS011;3555;53.248;10.336;2024-03-08T01:43:35;17.47;;;11.10;;
7027;SDS011;3555;53.248;10.336;2024-03-08T01:46:02;16.83;;;9.63;;
7027;SDS011;3555;53.248;10.336;2024-03-08T01:48:29;18.60;;;10.93;;
7027;SDS011;3555;53.248;10.336;2024-03-08T01:50:57;16.90;;;10.23;;
7027;SDS011;3555;53.248;10.336;2024-03-08T01:53:25;17.23;;;9.97;;
7027;SDS011;3555;53.248;10.336;2024-03-08T01:55:56;18.53;;;10.97;;
7027;SDS011;3555;53.248;10.336;2024-03-08T01:58:24;17.57;;;10.83;;
7027;SDS011;3555;53.248;10.336;2024-03-08T02:00:53;16.13;;;10.53;;
7027;SDS011;3555;53.248;10.336;2024-03-08T02:03:20;15.87;;;9.83;;
7027;SDS011;3555;53.248;10.336;2024-03-08T02:05:47;15.77;;;10.03;;
7027;SDS011;3555;53.248;10.336;2024-03-08T02:08:16;20.40;;;11.50;;
7027;SDS011;3555;53.248;10.336;2024-03-08T02:10:44;17.70;;;10.63;;
7027;SDS011;3555;53.248;10.336;2024-03-08T02:13:12;18.80;;;10.30;;
7027;SDS011;3555;53.248;10.336;2024-03-08T02:15:52;22.03;;;11.70;;
7027;SDS011;3555;53.248;10.336;2024-03-08T02:18:19;16.47;;;9.50;;
7027;SDS011;3555;53.248;10.336;2024-03-08T02:20:48;16.07;;;9.73;;
7027;SDS011;3555;53.248;10.336;2024-03-08T02:23:15;14.90;;;9.67;;
7027;SDS011;3555;53.248;10.336;2024-03-08T02:25:42;17.73;;;10.60;;
7027;SDS011;3555;53.248;10.336;2024-03-08T02:28:10;17.53;;;10.50;;
7027;SDS011;3555;53.248;10.336;2024-03-08T02:30:38;19.93;;;10.90;;
7027;SDS011;3555;53.248;10.336;2024-03-08T02:33:05;21.40;;;10.57;;
7027;SDS011;3555;53.248;10.336;2024-03-08T02:35:32;15.17;;;9.50;;
7027;SDS011;3555;53.248;10.336;2024-03-08T02:38:00;19.33;;;10.30;;
7027;SDS011;3555;53.248;10.336;2024-03-08T02:40:28;16.93;;;10.30;;
7027;SDS011;3555;53.248;10.336;2024-03-08T02:42:55;16.07;;;9.57;;
7027;SDS011;3555;53.248;10.336;2024-03-08T02:45:23;16.20;;;10.03;;
7027;SDS011;3555;53.248;10.336;2024-03-08T02:47:50;16.83;;;9.57;;
7027;SDS011;3555;53.248;10.336;2024-03-08T02:50:17;16.40;;;9.80;;
7027;SDS011;3555;53.248;10.336;2024-03-08T02:52:44;15.43;;;9.40;;
7027;SDS011;3555;53.248;10.336;2024-03-08T02:55:13;15.73;;;9.43;;
7027;SDS011;3555;53.248;10.336;2024-03-08T02:57:41;18.30;;;10.30;;
7027;SDS011;3555;53.248;10.336;2024-03-08T03:00:08;12.93;;;8.97;;
7027;SDS011;3555;53.248;10.336;2024-03-08T03:02:36;17.33;;;9.87;;
7027;SDS011;3555;53.248;10.336;2024-03-08T03:05:03;17.13;;;9.60;;
7027;SDS011;3555;53.248;10.336;2024-03-08T03:07:31;16.50;;;10.00;;
7027;SDS011;3555;53.248;10.336;2024-03-08T03:09:58;15.57;;;9.67;;
7027;SDS011;3555;53.248;10.336;2024-03-08T03:12:28;11.87;;;8.70;;
7027;SDS011;3555;53.248;10.336;2024-03-08T03:14:54;14.80;;;9.10;;
7027;SDS011;3555;53.248;10.336;2024-03-08T03:17:22;14.80;;;9.03;;
7027;SDS011;3555;53.248;10.336;2024-03-08T03:19:49;14.97;;;9.83;;
7027;SDS011;3555;53.248;10.336;2024-03-08T03:22:16;14.93;;;8.97;;
7027;SDS011;3555;53.248;10.336;2024-03-08T03:24:43;15.37;;;9.10;;
7027;SDS011;3555;53.248;10.336;2024-03-08T03:27:11;13.67;;;8.50;;
7027;SDS011;3555;53.248;10.336;2024-03-08T03:29:39;13.80;;;8.70;;
7027;SDS011;3555;53.248;10.336;2024-03-08T03:32:10;14.83;;;9.43;;
7027;SDS011;3555;53.248;10.336;2024-03-08T03:34:37;16.23;;;9.63;;
7027;SDS011;3555;53.248;10.336;2024-03-08T03:37:04;14.53;;;9.50;;
7027;SDS011;3555;53.248;10.336;2024-03-08T03:39:32;15.27;;;8.70;;
7027;SDS011;3555;53.248;10.336;2024-03-08T03:41:59;13.73;;;9.00;;
7027;SDS011;3555;53.248;10.336;2024-03-08T03:44:27;16.43;;;9.70;;
7027;SDS011;3555;53.248;10.336;2024-03-08T03:46:55;16.93;;;9.40;;
7027;SDS011;3555;53.248;10.336;2024-03-08T03:49:22;17.27;;;9.93;;
7027;SDS011;3555;53.248;10.336;2024-03-08T03:51:49;14.20;;;9.13;;
7027;SDS011;3555;53.248;10.336;2024-03-08T03:54:15;17.90;;;9.67;;
7027;SDS011;3555;53.248;10.336;2024-03-08T03:56:42;15.53;;;9.43;;
7027;SDS011;3555;53.248;10.336;2024-03-08T03:59:10;16.53;;;9.27;;
7027;SDS011;3555;53.248;10.336;2024-03-08T04:01:41;16.20;;;10.03;;
7027;SDS011;3555;53.248;10.336;2024-03-08T04:04:09;15.27;;;9.53;;
7027;SDS011;3555;53.248;10.336;2024-03-08T04:06:37;13.10;;;8.97;;
7027;SDS011;3555;53.248;10.336;2024-03-08T04:09:04;14.80;;;9.57;;
7027;SDS011;3555;53.248;10.336;2024-03-08T04:11:31;17.90;;;9.47;;
7027;SDS011;3555;53.248;10.336;2024-03-08T04:13:57;17.53;;;9.67;;
7027;SDS011;3555;53.248;10.336;2024-03-08T04:16:24;16.27;;;9.93;;
7027;SDS011;3555;53.248;10.336;2024-03-08T04:18:51;16.40;;;10.00;;
7027;SDS011;3555;53.248;10.336;2024-03-08T04:21:18;15.97;;;9.17;;
7027;SDS011;3555;53.248;10.336;2024-03-08T04:23:46;17.47;;;9.37;;
7027;SDS011;3555;53.248;10.336;2024-03-08T04:26:12;17.17;;;8.97;;
7027;SDS011;3555;53.248;10.336;2024-03-08T04:28:39;15.33;;;9.60;;
7027;SDS011;3555;53.248;10.336;2024-03-08T04:31:06;15.83;;;9.70;;
7027;SDS011;3555;53.248;10.336;2024-03-08T04:33:33;14.73;;;9.27;;
7027;SDS011;3555;53.248;10.336;2024-03-08T04:36:00;15.73;;;10.37;;
7027;SDS011;3555;53.248;10.336;2024-03-08T04:38:30;17.80;;;9.63;;
7027;SDS011;3555;53.248;10.336;2024-03-08T04:40:57;16.53;;;10.13;;
7027;SDS011;3555;53.248;10.336;2024-03-08T04:43:27;16.50;;;10.00;;
7027;SDS011;3555;53.248;10.336;2024-03-08T04:45:55;19.10;;;10.93;;
7027;SDS011;3555;53.248;10.336;2024-03-08T04:48:22;18.13;;;10.47;;
7027;SDS011;3555;53.248;10.336;2024-03-08T04:50:51;18.97;;;10.40;;
7027;SDS011;3555;53.248;10.336;2024-03-08T04:53:19;18.03;;;10.30;;
7027;SDS011;3555;53.248;10.336;2024-03-08T04:55:47;15.50;;;9.93;;
7027;SDS011;3555;53.248;10.336;2024-03-08T04:58:14;17.43;;;10.70;;
7027;SDS011;3555;53.248;10.336;2024-03-08T05:00:41;16.07;;;9.83;;
7027;SDS011;3555;53.248;10.336;2024-03-08T05:03:08;17.80;;;10.80;;
7027;SDS011;3555;53.248;10.336;2024-03-08T05:05:35;20.60;;;11.50;;
7027;SDS011;3555;53.248;10.336;2024-03-08T05:08:02;20.97;;;11.20;;
7027;SDS011;3555;53.248;10.336;2024-03-08T05:10:30;19.70;;;12.13;;
7027;SDS011;3555;53.248;10.336;2024-03-08T05:12:59;22.13;;;10.60;;
7027;SDS011;3555;53.248;10.336;2024-03-08T05:15:26;23.10;;;11.50;;
7027;SDS011;3555;53.248;10.336;2024-03-08T05:17:52;19.47;;;11.53;;
7027;SDS011;3555;53.248;10.336;2024-03-08T05:20:21;22.60;;;11.00;;
7027;SDS011;3555;53.248;10.336;2024-03-08T05:22:47;24.33;;;12.77;;
7027;SDS011;3555;53.248;10.336;2024-03-08T05:25:14;20.57;;;11.60;;
7027;SDS011;3555;53.248;10.336;2024-03-08T05:27:42;23.27;;;11.27;;
7027;SDS011;3555;53.248;10.336;2024-03-08T05:30:11;21.67;;;11.60;;
7027;SDS011;3555;53.248;10.336;2024-03-08T05:32:40;21.03;;;11.10;;
7027;SDS011;3555;53.248;10.336;2024-03-08T05:35:09;22.10;;;12.77;;
7027;SDS011;3555;53.248;10.336;2024-03-08T05:37:37;21.40;;;12.03;;
7027;SDS011;3555;53.248;10.336;2024-03-08T05:40:04;23.23;;;12.77;;
7027;SDS011;3555;53.248;10.336;2024-03-08T05:42:34;20.77;;;13.23;;
7027;SDS011;3555;53.248;10.336;2024-03-08T05:45:02;21.67;;;12.57;;
7027;SDS011;3555;53.248;10.336;2024-03-08T05:47:30;21.17;;;12.40;;
7027;SDS011;3555;53.248;10.336;2024-03-08T05:49:57;20.63;;;12.73;;
7027;SDS011;3555;53.248;10.336;2024-03-08T05:52:24;22.90;;;12.43;;
7027;SDS011;3555;53.248;10.336;2024-03-08T05:54:52;22.33;;;12.37;;
7027;SDS011;3555;53.248;10.336;2024-03-08T05:57:18;19.00;;;12.20;;
7027;SDS011;3555;53.248;10.336;2024-03-08T05:59:47;22.93;;;13.30;;
7027;SDS011;3555;53.248;10.336;2024-03-08T06:02:14;22.63;;;12.00;;
7027;SDS011;3555;53.248;10.336;2024-03-08T06:04:45;22.83;;;11.83;;
7027;SDS011;3555;53.248;10.336;2024-03-08T06:07:13;21.73;;;12.93;;
7027;SDS011;3555;53.248;10.336;2024-03-08T06:09:39;22.20;;;11.87;;
7027;SDS011;3555;53.248;10.336;2024-03-08T06:12:10;20.77;;;12.57;;
7027;SDS011;3555;53.248;10.336;2024-03-08T06:14:37;22.17;;;12.50;;
7027;SDS011;3555;53.248;10.336;2024-03-08T06:17:04;24.27;;;12.60;;
7027;SDS011;3555;53.248;10.336;2024-03-08T06:19:32;24.27;;;12.53;;
7027;SDS011;3555;53.248;10.336;2024-03-08T06:22:00;22.73;;;13.37;;
7027;SDS011;3555;53.248;10.336;2024-03-08T06:24:30;22.27;;;12.73;;
7027;SDS011;3555;53.248;10.336;2024-03-08T06:26:57;20.30;;;12.60;;
7027;SDS011;3555;53.248;10.336;2024-03-08T06:29:24;23.57;;;12.93;;
7027;SDS011;3555;53.248;10.336;2024-03-08T06:31:51;26.37;;;12.97;;
7027;SDS011;3555;53.248;10.336;2024-03-08T06:34:18;24.07;;;12.90;;
7027;SDS011;3555;53.248;10.336;2024-03-08T06:36:45;25.17;;;13.90;;
7027;SDS011;3555;53.248;10.336;2024-03-08T06:39:13;22.60;;;13.03;;
7027;SDS011;3555;53.248;10.336;2024-03-08T06:41:40;23.60;;;13.77;;
7027;SDS011;3555;53.248;10.336;2024-03-08T06:44:09;22.87;;;12.90;;
7027;SDS011;3555;53.248;10.336;2024-03-08T06:46:36;25.63;;;13.57;;
7027;SDS011;3555;53.248;10.336;2024-03-08T06:49:03;26.70;;;14.03;;
7027;SDS011;3555;53.248;10.336;2024-03-08T06:51:32;22.60;;;14.00;;
7027;SDS011;3555;53.248;10.336;2024-03-08T06:53:59;22.87;;;13.97;;
7027;SDS011;3555;53.248;10.336;2024-03-08T06:56:27;27.53;;;14.10;;
7027;SDS011;3555;53.248;10.336;2024-03-08T06:58:54;22.17;;;12.50;;
7027;SDS011;3555;53.248;10.336;2024-03-08T07:01:21;20.77;;;12.93;;
7027;SDS011;3555;53.248;10.336;2024-03-08T07:03:48;23.10;;;13.77;;
7027;SDS011;3555;53.248;10.336;2024-03-08T07:06:17;24.83;;;13.13;;
7027;SDS011;3555;53.248;10.336;2024-03-08T07:08:45;22.67;;;13.33;;
7027;SDS011;3555;53.248;10.336;2024-03-08T07:11:12;22.73;;;13.50;;
7027;SDS011;3555;53.248;10.336;2024-03-08T07:13:42;21.27;;;12.97;;
7027;SDS011;3555;53.248;10.336;2024-03-08T07:16:09;24.43;;;12.10;;
7027;SDS011;3555;53.248;10.336;2024-03-08T07:18:36;20.67;;;12.37;;
7027;SDS011;3555;53.248;10.336;2024-03-08T07:21:05;21.93;;;11.37;;
7027;SDS011;3555;53.248;10.336;2024-03-08T07:23:31;24.97;;;11.40;;
7027;SDS011;3555;53.248;10.336;2024-03-08T07:26:27;20.00;;;11.50;;
7027;SDS011;3555;53.248;10.336;2024-03-08T07:28:56;21.00;;;11.43;;
7027;SDS011;3555;53.248;10.336;2024-03-08T07:31:25;22.50;;;12.17;;
7027;SDS011;3555;53.248;10.336;2024-03-08T07:34:03;19.40;;;12.23;;
7027;SDS011;3555;53.248;10.336;2024-03-08T07:36:32;19.90;;;12.53;;
7027;SDS011;3555;53.248;10.336;2024-03-08T07:39:00;20.07;;;11.37;;
7027;SDS011;3555;53.248;10.336;2024-03-08T07:41:27;19.23;;;11.43;;
7027;SDS011;3555;53.248;10.336;2024-03-08T07:43:54;18.53;;;11.60;;
7027;SDS011;3555;53.248;10.336;2024-03-08T07:46:22;19.50;;;11.47;;
7027;SDS011;3555;53.248;10.336;2024-03-08T07:48:49;19.67;;;11.83;;
7027;SDS011;3555;53.248;10.336;2024-03-08T07:51:16;17.87;;;11.20;;
7027;SDS011;3555;53.248;10.336;2024-03-08T07:53:43;17.93;;;11.10;;
7027;SDS011;3555;53.248;10.336;2024-03-08T07:56:10;19.40;;;11.60;;
7027;SDS011;3555;53.248;10.336;2024-03-08T07:58:38;21.00;;;12.07;;
7027;SDS011;3555;53.248;10.336;2024-03-08T08:01:06;19.47;;;11.77;;
7027;SDS011;3555;53.248;10.336;2024-03-08T08:03:35;17.37;;;10.87;;
7027;SDS011;3555;53.248;10.336;2024-03-08T08:06:03;18.23;;;11.27;;
7027;SDS011;3555;53.248;10.336;2024-03-08T08:08:30;20.33;;;11.67;;
7027;SDS011;3555;53.248;10.336;2024-03-08T08:10:58;16.50;;;10.90;;
7027;SDS011;3555;53.248;10.336;2024-03-08T08:13:26;19.73;;;12.30;;
7027;SDS011;3555;53.248;10.336;2024-03-08T08:15:57;18.80;;;11.83;;
7027;SDS011;3555;53.248;10.336;2024-03-08T08:18:24;21.97;;;11.53;;
7027;SDS011;3555;53.248;10.336;2024-03-08T08:20:52;18.30;;;11.33;;
7027;SDS011;3555;53.248;10.336;2024-03-08T08:23:19;19.03;;;11.83;;
7027;SDS011;3555;53.248;10.336;2024-03-08T08:25:46;17.73;;;10.80;;
7027;SDS011;3555;53.248;10.336;2024-03-08T08:28:15;18.73;;;12.17;;
7027;SDS011;3555;53.248;10.336;2024-03-08T08:30:42;18.20;;;12.00;;
7027;SDS011;3555;53.248;10.336;2024-03-08T08:33:09;16.83;;;11.50;;
7027;SDS011;3555;53.248;10.336;2024-03-08T08:35:36;19.23;;;12.13;;
7027;SDS011;3555;53.248;10.336;2024-03-08T08:38:05;19.87;;;12.30;;
7027;SDS011;3555;53.248;10.336;2024-03-08T08:40:32;19.03;;;10.63;;
7027;SDS011;3555;53.248;10.336;2024-03-08T08:43:01;20.30;;;12.07;;
7027;SDS011;3555;53.248;10.336;2024-03-08T08:45:29;21.33;;;12.50;;
7027;SDS011;3555;53.248;10.336;2024-03-08T08:47:56;19.00;;;11.83;;
7027;SDS011;3555;53.248;10.336;2024-03-08T08:50:24;21.97;;;12.60;;
7027;SDS011;3555;53.248;10.336;2024-03-08T08:52:51;22.27;;;11.73;;
7027;SDS011;3555;53.248;10.336;2024-03-08T08:55:20;20.73;;;13.03;;
7027;SDS011;3555;53.248;10.336;2024-03-08T08:57:50;18.17;;;11.93;;
7027;SDS011;3555;53.248;10.336;2024-03-08T09:00:18;18.83;;;12.13;;
7027;SDS011;3555;53.248;10.336;2024-03-08T09:02:45;20.53;;;12.13;;
7027;SDS011;3555;53.248;10.336;2024-03-08T09:05:13;17.47;;;12.13;;
7027;SDS011;3555;53.248;10.336;2024-03-08T09:07:42;19.50;;;12.10;;
7027;SDS011;3555;53.248;10.336;2024-03-08T09:10:10;18.57;;;13.10;;
7027;SDS011;3555;53.248;10.336;2024-03-08T09:12:40;20.87;;;12.60;;
7027;SDS011;3555;53.248;10.336;2024-03-08T09:15:07;20.03;;;11.83;;
7027;SDS011;3555;53.248;10.336;2024-03-08T09:17:36;21.73;;;12.53;;
7027;SDS011;3555;53.248;10.336;2024-03-08T09:20:04;19.30;;;12.03;;
7027;SDS011;3555;53.248;10.336;2024-03-08T09:22:32;20.13;;;12.63;;
7027;SDS011;3555;53.248;10.336;2024-03-08T09:24:59;22.53;;;13.33;;
7027;SDS011;3555;53.248;10.336;2024-03-08T09:27:26;22.73;;;13.07;;
7027;SDS011;3555;53.248;10.336;2024-03-08T09:29:55;18.90;;;12.03;;
7027;SDS011;3555;53.248;10.336;2024-03-08T09:32:22;21.47;;;12.90;;
7027;SDS011;3555;53.248;10.336;2024-03-08T09:34:48;19.73;;;12.23;;
7027;SDS011;3555;53.248;10.336;2024-03-08T09:37:16;20.47;;;12.77;;
7027;SDS011;3555;53.248;10.336;2024-03-08T09:39:43;20.20;;;13.23;;
7027;SDS011;3555;53.248;10.336;2024-03-08T09:42:10;20.47;;;12.80;;
7027;SDS011;3555;53.248;10.336;2024-03-08T09:44:39;21.83;;;12.37;;
7027;SDS011;3555;53.248;10.336;2024-03-08T09:47:11;20.07;;;12.93;;
7027;SDS011;3555;53.248;10.336;2024-03-08T09:49:39;21.20;;;12.57;;
7027;SDS011;3555;53.248;10.336;2024-03-08T09:52:06;19.30;;;12.63;;
7027;SDS011;3555;53.248;10.336;2024-03-08T09:54:35;24.53;;;12.80;;
7027;SDS011;3555;53.248;10.336;2024-03-08T09:57:03;18.80;;;11.97;;
7027;SDS011;3555;53.248;10.336;2024-03-08T09:59:30;20.80;;;12.43;;
7027;SDS011;3555;53.248;10.336;2024-03-08T10:02:15;21.70;;;12.93;;
7027;SDS011;3555;53.248;10.336;2024-03-08T10:04:43;17.83;;;12.43;;
7027;SDS011;3555;53.248;10.336;2024-03-08T10:07:12;17.97;;;12.73;;
7027;SDS011;3555;53.248;10.336;2024-03-08T10:09:39;19.07;;;11.73;;
7027;SDS011;3555;53.248;10.336;2024-03-08T10:12:07;19.07;;;12.17;;
7027;SDS011;3555;53.248;10.336;2024-03-08T10:14:38;18.77;;;11.40;;
7027;SDS011;3555;53.248;10.336;2024-03-08T10:17:06;19.13;;;12.40;;
7027;SDS011;3555;53.248;10.336;2024-03-08T10:19:34;17.00;;;11.77;;
7027;SDS011;3555;53.248;10.336;2024-03-08T10:22:01;19.33;;;12.33;;
7027;SDS011;3555;53.248;10.336;2024-03-08T10:24:29;18.37;;;12.53;;
7027;SDS011;3555;53.248;10.336;2024-03-08T10:26:58;15.00;;;11.23;;
7027;SDS011;3555;53.248;10.336;2024-03-08T10:29:26;19.73;;;11.67;;
7027;SDS011;3555;53.248;10.336;2024-03-08T10:31:53;18.37;;;12.27;;
7027;SDS011;3555;53.248;10.336;2024-03-08T10:34:22;18.30;;;12.07;;
7027;SDS011;3555;53.248;10.336;2024-03-08T10:36:51;20.10;;;11.33;;
7027;SDS011;3555;53.248;10.336;2024-03-08T10:39:22;17.63;;;11.80;;
7027;SDS011;3555;53.248;10.336;2024-03-08T10:41:52;18.40;;;10.73;;
7027;SDS011;3555;53.248;10.336;2024-03-08T10:44:26;16.93;;;11.30;;
7027;SDS011;3555;53.248;10.336;2024-03-08T10:47:08;19.50;;;11.17;;
7027;SDS011;3555;53.248;10.336;2024-03-08T10:49:44;15.77;;;10.73;;
7027;SDS011;3555;53.248;10.336;2024-03-08T10:52:21;19.57;;;11.37;;
7027;SDS011;3555;53.248;10.336;2024-03-08T10:54:48;18.93;;;10.73;;
7027;SDS011;3555;53.248;10.336;2024-03-08T10:57:18;17.87;;;10.53;;
7027;SDS011;3555;53.248;10.336;2024-03-08T10:59:46;19.63;;;11.80;;
7027;SDS011;3555;53.248;10.336;2024-03-08T11:02:14;17.90;;;10.93;;
7027;SDS011;3555;53.248;10.336;2024-03-08T11:04:45;17.60;;;11.20;;
7027;SDS011;3555;53.248;10.336;2024-03-08T11:07:14;15.93;;;10.73;;
7027;SDS011;3555;53.248;10.336;2024-03-08T11:09:45;16.03;;;10.70;;
7027;SDS011;3555;53.248;10.336;2024-03-08T11:12:21;16.37;;;11.23;;
7027;SDS011;3555;53.248;10.336;2024-03-08T11:14:51;17.53;;;11.10;;
7027;SDS011;3555;53.248;10.336;2024-03-08T11:17:22;20.80;;;11.53;;
7027;SDS011;3555;53.248;10.336;2024-03-08T11:19:52;18.20;;;11.23;;
7027;SDS011;3555;53.248;10.336;2024-03-08T11:22:22;19.80;;;10.67;;
7027;SDS011;3555;53.248;10.336;2024-03-08T11:24:54;18.13;;;11.13;;
7027;SDS011;3555;53.248;10.336;2024-03-08T11:27:28;17.67;;;10.97;;
7027;SDS011;3555;53.248;10.336;2024-03-08T11:29:59;17.43;;;11.40;;
7027;SDS011;3555;53.248;10.336;2024-03-08T11:32:34;16.27;;;10.90;;
7027;SDS011;3555;53.248;10.336;2024-03-08T11:35:05;19.23;;;11.07;;
7027;SDS011;3555;53.248;10.336;2024-03-08T11:37:33;16.67;;;11.13;;
7027;SDS011;3555;53.248;10.336;2024-03-08T11:40:06;15.40;;;10.17;;
7027;SDS011;3555;53.248;10.336;2024-03-08T11:42:43;16.23;;;11.03;;
7027;SDS011;3555;53.248;10.336;2024-03-08T11:45:11;16.57;;;10.53;;
7027;SDS011;3555;53.248;10.336;2024-03-08T11:47:38;18.97;;;11.53;;
7027;SDS011;3555;53.248;10.336;2024-03-08T11:50:09;18.57;;;11.47;;
7027;SDS011;3555;53.248;10.336;2024-03-08T11:52:37;19.97;;;11.27;;
7027;SDS011;3555;53.248;10.336;2024-03-08T11:55:06;21.63;;;11.27;;
7027;SDS011;3555;53.248;10.336;2024-03-08T11:57:33;20.23;;;11.97;;
7027;SDS011;3555;53.248;10.336;2024-03-08T12:00:00;18.60;;;11.07;;
7027;SDS011;3555;53.248;10.336;2024-03-08T12:02:32;17.10;;;11.27;;
7027;SDS011;3555;53.248;10.336;2024-03-08T12:05:00;17.23;;;10.73;;
7027;SDS011;3555;53.248;10.336;2024-03-08T12:07:28;22.80;;;11.90;;
7027;SDS011;3555;53.248;10.336;2024-03-08T12:10:17;17.77;;;11.07;;
7027;SDS011;3555;53.248;10.336;2024-03-08T12:12:46;15.53;;;10.27;;
7027;SDS011;3555;53.248;10.336;2024-03-08T12:15:14;16.17;;;10.33;;
7027;SDS011;3555;53.248;10.336;2024-03-08T12:17:43;16.10;;;10.63;;
7027;SDS011;3555;53.248;10.336;2024-03-08T12:20:14;16.17;;;10.57;;
7027;SDS011;3555;53.248;10.336;2024-03-08T12:22:42;15.77;;;10.60;;
7027;SDS011;3555;53.248;10.336;2024-03-08T12:25:09;15.93;;;10.47;;
7027;SDS011;3555;53.248;10.336;2024-03-08T12:27:39;14.50;;;10.37;;
7027;SDS011;3555;53.248;10.336;2024-03-08T12:30:17;17.50;;;11.07;;
7027;SDS011;3555;53.248;10.336;2024-03-08T12:32:47;14.93;;;10.20;;
7027;SDS011;3555;53.248;10.336;2024-03-08T12:35:17;16.83;;;10.43;;
7027;SDS011;3555;53.248;10.336;2024-03-08T12:37:44;17.60;;;10.13;;
7027;SDS011;3555;53.248;10.336;2024-03-08T12:40:11;15.50;;;10.00;;
7027;SDS011;3555;53.248;10.336;2024-03-08T12:42:43;16.37;;;10.53;;
7027;SDS011;3555;53.248;10.336;2024-03-08T12:45:12;14.20;;;9.80;;
7027;SDS011;3555;53.248;10.336;2024-03-08T12:47:39;17.27;;;9.83;;
7027;SDS011;3555;53.248;10.336;2024-03-08T12:50:08;16.83;;;9.47;;
7027;SDS011;3555;53.248;10.336;2024-03-08T12:52:36;16.23;;;9.43;;
7027;SDS011;3555;53.248;10.336;2024-03-08T12:55:03;15.93;;;9.27;;
7027;SDS011;3555;53.248;10.336;2024-03-08T12:57:32;15.63;;;10.03;;
7027;SDS011;3555;53.248;10.336;2024-03-08T13:00:02;15.07;;;9.13;;
7027;SDS011;3555;53.248;10.336;2024-03-08T13:02:30;16.57;;;10.00;;
7027;SDS011;3555;53.248;10.336;2024-03-08T13:04:58;16.47;;;10.43;;
7027;SDS011;3555;53.248;10.336;2024-03-08T13:07:26;16.90;;;9.83;;
7027;SDS011;3555;53.248;10.336;2024-03-08T13:09:53;16.13;;;9.47;;
7027;SDS011;3555;53.248;10.336;2024-03-08T13:12:20;20.63;;;10.87;;
7027;SDS011;3555;53.248;10.336;2024-03-08T13:14:48;15.27;;;9.93;;
7027;SDS011;3555;53.248;10.336;2024-03-08T13:17:17;13.90;;;9.60;;
7027;SDS011;3555;53.248;10.336;2024-03-08T13:19:44;15.10;;;9.07;;
7027;SDS011;3555;53.248;10.336;2024-03-08T13:22:11;15.67;;;10.00;;
7027;SDS011;3555;53.248;10.336;2024-03-08T13:24:38;16.07;;;10.03;;
7027;SDS011;3555;53.248;10.336;2024-03-08T13:27:07;17.67;;;9.57;;
7027;SDS011;3555;53.248;10.336;2024-03-08T13:29:44;14.97;;;9.47;;
7027;SDS011;3555;53.248;10.336;2024-03-08T13:32:14;12.57;;;8.67;;
7027;SDS011;3555;53.248;10.336;2024-03-08T13:34:45;12.43;;;8.63;;
7027;SDS011;3555;53.248;10.336;2024-03-08T13:37:15;15.27;;;9.37;;
7027;SDS011;3555;53.248;10.336;2024-03-08T13:39:43;14.33;;;9.60;;
7027;SDS011;3555;53.248;10.336;2024-03-08T13:42:10;16.50;;;8.87;;
7027;SDS011;3555;53.248;10.336;2024-03-08T13:44:43;14.13;;;8.70;;
7027;SDS011;3555;53.248;10.336;2024-03-08T13:47:10;17.60;;;8.80;;
7027;SDS011;3555;53.248;10.336;2024-03-08T13:49:39;14.90;;;8.93;;
7027;SDS011;3555;53.248;10.336;2024-03-08T13:52:08;14.47;;;8.73;;
7027;SDS011;3555;53.248;10.336;2024-03-08T13:54:35;15.27;;;9.03;;
7027;SDS011;3555;53.248;10.336;2024-03-08T13:57:03;15.13;;;8.40;;
7027;SDS011;3555;53.248;10.336;2024-03-08T13:59:32;12.97;;;8.03;;
7027;SDS011;3555;53.248;10.336;2024-03-08T14:02:00;13.10;;;7.63;;
7027;SDS011;3555;53.248;10.336;2024-03-08T14:04:27;14.13;;;8.67;;
7027;SDS011;3555;53.248;10.336;2024-03-08T14:06:55;12.50;;;8.00;;
7027;SDS011;3555;53.248;10.336;2024-03-08T14:09:28;14.80;;;7.83;;
7027;SDS011;3555;53.248;10.336;2024-03-08T14:11:54;14.10;;;8.17;;
7027;SDS011;3555;53.248;10.336;2024-03-08T14:14:21;13.03;;;7.37;;
7027;SDS011;3555;53.248;10.336;2024-03-08T14:16:48;14.83;;;8.23;;
7027;SDS011;3555;53.248;10.336;2024-03-08T14:19:17;12.57;;;7.80;;
7027;SDS011;3555;53.248;10.336;2024-03-08T14:21:45;13.17;;;8.60;;
7027;SDS011;3555;53.248;10.336;2024-03-08T14:24:14;15.60;;;8.30;;
7027;SDS011;3555;53.248;10.336;2024-03-08T14:26:41;12.33;;;7.97;;
7027;SDS011;3555;53.248;10.336;2024-03-08T14:29:08;12.33;;;7.80;;
7027;SDS011;3555;53.248;10.336;2024-03-08T14:31:36;16.73;;;8.00;;
7027;SDS011;3555;53.248;10.336;2024-03-08T14:34:03;10.97;;;7.70;;
7027;SDS011;3555;53.248;10.336;2024-03-08T14:36:30;15.17;;;7.67;;
7027;SDS011;3555;53.248;10.336;2024-03-08T14:38:57;11.70;;;7.63;;
7027;SDS011;3555;53.248;10.336;2024-03-08T14:41:25;11.30;;;7.57;;
7027;SDS011;3555;53.248;10.336;2024-03-08T14:43:52;10.90;;;7.13;;